Dalton, Missouri
Current Conditions -  °F | °C
As of 2:55 AM on Saturday 25 Oct 2014 (Local Time) from KVER Reporting Station
Broken Clouds Broken Clouds  
Wind Chill: 64°   Ceiling: 4600
Heat Index: 64°   Visibility: 10mi
Dew Point: 60°   Wind: 0mph
Humidity: 86%   Direction: NA
Pressure: 30"   Gusts: NA
Location:  39.4°N, 92.99°W
Report Text: KVER 250755Z AUTO 00000KT 10SM BKN046 18/16 A3000 RMK AO2 T01800157
Loading
Personal Weather Stations






























Interactive Weather Map
Tropical Storm Tracking
New forecast layout! Learn more

10-Day Weather Forecast

Advertisements
Track Severe Weather on mobile